sensor_id;sensor_type;location;lat;lon;timestamp;P1;durP1;ratioP1;P2;durP2;ratioP2
71800;SDS011;59647;55.838;37.292;2023-03-25T00:00:07;5.25;;;2.80;;
71800;SDS011;59647;55.838;37.292;2023-03-25T00:02:44;7.35;;;2.80;;
71800;SDS011;59647;55.838;37.292;2023-03-25T00:05:12;6.85;;;2.97;;
71800;SDS011;59647;55.838;37.292;2023-03-25T00:07:42;6.90;;;3.15;;
71800;SDS011;59647;55.838;37.292;2023-03-25T00:10:09;9.05;;;2.88;;
71800;SDS011;59647;55.838;37.292;2023-03-25T00:12:35;8.18;;;3.78;;
71800;SDS011;59647;55.838;37.292;2023-03-25T00:15:03;5.40;;;2.90;;
71800;SDS011;59647;55.838;37.292;2023-03-25T00:17:30;7.35;;;3.50;;
71800;SDS011;59647;55.838;37.292;2023-03-25T00:19:59;6.38;;;3.30;;
71800;SDS011;59647;55.838;37.292;2023-03-25T00:22:27;7.18;;;3.30;;
71800;SDS011;59647;55.838;37.292;2023-03-25T00:24:52;6.07;;;3.33;;
71800;SDS011;59647;55.838;37.292;2023-03-25T00:27:18;4.70;;;2.75;;
71800;SDS011;59647;55.838;37.292;2023-03-25T00:29:44;8.90;;;2.83;;
71800;SDS011;59647;55.838;37.292;2023-03-25T00:32:11;7.97;;;2.90;;
71800;SDS011;59647;55.838;37.292;2023-03-25T00:34:38;10.68;;;3.40;;
71800;SDS011;59647;55.838;37.292;2023-03-25T00:37:06;6.22;;;2.90;;
71800;SDS011;59647;55.838;37.292;2023-03-25T00:39:33;6.10;;;3.55;;
71800;SDS011;59647;55.838;37.292;2023-03-25T00:42:00;6.57;;;3.55;;
71800;SDS011;59647;55.838;37.292;2023-03-25T00:44:26;6.70;;;3.25;;
71800;SDS011;59647;55.838;37.292;2023-03-25T00:46:52;7.40;;;3.17;;
71800;SDS011;59647;55.838;37.292;2023-03-25T00:49:18;5.20;;;3.08;;
71800;SDS011;59647;55.838;37.292;2023-03-25T00:51:49;7.80;;;3.22;;
71800;SDS011;59647;55.838;37.292;2023-03-25T00:54:16;9.13;;;3.47;;
71800;SDS011;59647;55.838;37.292;2023-03-25T00:56:42;6.88;;;2.78;;
71800;SDS011;59647;55.838;37.292;2023-03-25T00:59:08;5.40;;;2.85;;
71800;SDS011;59647;55.838;37.292;2023-03-25T01:01:35;6.30;;;3.05;;
71800;SDS011;59647;55.838;37.292;2023-03-25T01:04:04;8.13;;;3.08;;
71800;SDS011;59647;55.838;37.292;2023-03-25T01:06:37;4.63;;;2.58;;
71800;SDS011;59647;55.838;37.292;2023-03-25T01:09:16;6.18;;;3.08;;
71800;SDS011;59647;55.838;37.292;2023-03-25T01:11:44;7.38;;;3.45;;
71800;SDS011;59647;55.838;37.292;2023-03-25T01:14:15;7.35;;;2.92;;
71800;SDS011;59647;55.838;37.292;2023-03-25T01:16:43;6.90;;;2.78;;
71800;SDS011;59647;55.838;37.292;2023-03-25T01:19:09;8.75;;;2.88;;
71800;SDS011;59647;55.838;37.292;2023-03-25T01:21:35;11.55;;;2.75;;
71800;SDS011;59647;55.838;37.292;2023-03-25T01:24:02;4.60;;;2.72;;
71800;SDS011;59647;55.838;37.292;2023-03-25T01:26:28;7.97;;;2.17;;
71800;SDS011;59647;55.838;37.292;2023-03-25T01:28:54;11.25;;;4.22;;
71800;SDS011;59647;55.838;37.292;2023-03-25T01:31:20;6.93;;;3.17;;
71800;SDS011;59647;55.838;37.292;2023-03-25T01:33:47;4.68;;;3.13;;
71800;SDS011;59647;55.838;37.292;2023-03-25T01:36:13;6.43;;;2.60;;
71800;SDS011;59647;55.838;37.292;2023-03-25T01:38:40;6.38;;;3.67;;
71800;SDS011;59647;55.838;37.292;2023-03-25T01:41:07;7.32;;;3.60;;
71800;SDS011;59647;55.838;37.292;2023-03-25T01:43:33;5.00;;;2.45;;
71800;SDS011;59647;55.838;37.292;2023-03-25T01:46:00;6.97;;;3.25;;
71800;SDS011;59647;55.838;37.292;2023-03-25T01:48:27;3.55;;;2.17;;
71800;SDS011;59647;55.838;37.292;2023-03-25T01:51:01;6.95;;;2.38;;
71800;SDS011;59647;55.838;37.292;2023-03-25T01:53:33;8.40;;;2.85;;
71800;SDS011;59647;55.838;37.292;2023-03-25T01:55:59;6.15;;;2.78;;
71800;SDS011;59647;55.838;37.292;2023-03-25T01:58:27;10.43;;;2.97;;
71800;SDS011;59647;55.838;37.292;2023-03-25T02:00:55;6.57;;;3.00;;
71800;SDS011;59647;55.838;37.292;2023-03-25T02:03:21;4.10;;;2.53;;
71800;SDS011;59647;55.838;37.292;2023-03-25T02:08:34;6.75;;;2.72;;
71800;SDS011;59647;55.838;37.292;2023-03-25T02:11:04;5.75;;;2.50;;
71800;SDS011;59647;55.838;37.292;2023-03-25T02:13:31;7.90;;;2.80;;
71800;SDS011;59647;55.838;37.292;2023-03-25T02:21:27;5.43;;;2.78;;
71800;SDS011;59647;55.838;37.292;2023-03-25T02:32:57;5.93;;;2.90;;
71800;SDS011;59647;55.838;37.292;2023-03-25T02:38:59;9.93;;;3.67;;
71800;SDS011;59647;55.838;37.292;2023-03-25T02:41:36;8.15;;;3.33;;
71800;SDS011;59647;55.838;37.292;2023-03-25T02:44:17;5.63;;;2.67;;
71800;SDS011;59647;55.838;37.292;2023-03-25T02:46:50;4.78;;;2.90;;
71800;SDS011;59647;55.838;37.292;2023-03-25T02:49:24;7.40;;;2.90;;
71800;SDS011;59647;55.838;37.292;2023-03-25T02:52:14;9.13;;;3.13;;
71800;SDS011;59647;55.838;37.292;2023-03-25T02:54:45;5.10;;;2.45;;
71800;SDS011;59647;55.838;37.292;2023-03-25T02:57:14;4.95;;;2.92;;
71800;SDS011;59647;55.838;37.292;2023-03-25T02:59:44;5.53;;;2.78;;
71800;SDS011;59647;55.838;37.292;2023-03-25T03:02:11;7.28;;;3.35;;
71800;SDS011;59647;55.838;37.292;2023-03-25T03:04:49;6.32;;;2.95;;
71800;SDS011;59647;55.838;37.292;2023-03-25T03:07:24;4.47;;;2.38;;
71800;SDS011;59647;55.838;37.292;2023-03-25T03:09:59;7.35;;;2.92;;
71800;SDS011;59647;55.838;37.292;2023-03-25T03:18:05;7.50;;;3.35;;
71800;SDS011;59647;55.838;37.292;2023-03-25T03:23:28;4.45;;;2.38;;
71800;SDS011;59647;55.838;37.292;2023-03-25T03:26:11;8.57;;;2.83;;
71800;SDS011;59647;55.838;37.292;2023-03-25T03:28:59;7.15;;;3.00;;
71800;SDS011;59647;55.838;37.292;2023-03-25T03:36:51;5.00;;;2.75;;
71800;SDS011;59647;55.838;37.292;2023-03-25T03:39:22;6.82;;;2.70;;
71800;SDS011;59647;55.838;37.292;2023-03-25T03:42:05;6.88;;;2.38;;
71800;SDS011;59647;55.838;37.292;2023-03-25T03:44:36;5.93;;;2.85;;
71800;SDS011;59647;55.838;37.292;2023-03-25T03:47:08;4.82;;;2.55;;
71800;SDS011;59647;55.838;37.292;2023-03-25T03:49:37;5.18;;;3.13;;
71800;SDS011;59647;55.838;37.292;2023-03-25T03:52:13;5.53;;;2.78;;
71800;SDS011;59647;55.838;37.292;2023-03-25T03:57:18;5.28;;;2.75;;
71800;SDS011;59647;55.838;37.292;2023-03-25T04:03:14;6.00;;;3.03;;
71800;SDS011;59647;55.838;37.292;2023-03-25T04:05:43;7.28;;;3.05;;
71800;SDS011;59647;55.838;37.292;2023-03-25T04:08:22;5.90;;;2.88;;
71800;SDS011;59647;55.838;37.292;2023-03-25T04:10:54;5.65;;;2.72;;
71800;SDS011;59647;55.838;37.292;2023-03-25T04:13:33;5.50;;;2.63;;
71800;SDS011;59647;55.838;37.292;2023-03-25T04:16:02;4.65;;;2.58;;
71800;SDS011;59647;55.838;37.292;2023-03-25T04:18:28;6.00;;;2.40;;
71800;SDS011;59647;55.838;37.292;2023-03-25T04:20:58;10.77;;;2.90;;
71800;SDS011;59647;55.838;37.292;2023-03-25T04:23:26;5.75;;;2.95;;
71800;SDS011;59647;55.838;37.292;2023-03-25T04:25:55;5.90;;;2.40;;
71800;SDS011;59647;55.838;37.292;2023-03-25T04:28:21;6.03;;;2.70;;
71800;SDS011;59647;55.838;37.292;2023-03-25T04:30:48;7.15;;;2.80;;
71800;SDS011;59647;55.838;37.292;2023-03-25T04:33:22;5.70;;;2.75;;
71800;SDS011;59647;55.838;37.292;2023-03-25T04:35:49;5.70;;;2.65;;
71800;SDS011;59647;55.838;37.292;2023-03-25T04:38:18;6.28;;;2.95;;
71800;SDS011;59647;55.838;37.292;2023-03-25T04:40:44;6.50;;;3.10;;
71800;SDS011;59647;55.838;37.292;2023-03-25T04:43:12;7.28;;;3.08;;
71800;SDS011;59647;55.838;37.292;2023-03-25T04:45:38;4.50;;;2.20;;
71800;SDS011;59647;55.838;37.292;2023-03-25T04:48:08;6.53;;;3.13;;
71800;SDS011;59647;55.838;37.292;2023-03-25T04:50:48;6.40;;;2.50;;
71800;SDS011;59647;55.838;37.292;2023-03-25T04:53:16;7.50;;;4.38;;
71800;SDS011;59647;55.838;37.292;2023-03-25T04:55:42;5.53;;;3.10;;
71800;SDS011;59647;55.838;37.292;2023-03-25T04:58:12;6.40;;;2.65;;
71800;SDS011;59647;55.838;37.292;2023-03-25T05:00:43;7.93;;;3.28;;
71800;SDS011;59647;55.838;37.292;2023-03-25T05:03:11;8.05;;;3.00;;
71800;SDS011;59647;55.838;37.292;2023-03-25T05:05:37;5.75;;;2.75;;
71800;SDS011;59647;55.838;37.292;2023-03-25T05:08:03;5.45;;;2.83;;
71800;SDS011;59647;55.838;37.292;2023-03-25T05:10:29;5.72;;;2.80;;
71800;SDS011;59647;55.838;37.292;2023-03-25T05:12:59;8.05;;;3.33;;
71800;SDS011;59647;55.838;37.292;2023-03-25T05:15:26;10.02;;;3.53;;
71800;SDS011;59647;55.838;37.292;2023-03-25T05:17:54;5.57;;;3.10;;
71800;SDS011;59647;55.838;37.292;2023-03-25T05:20:20;9.40;;;3.22;;
71800;SDS011;59647;55.838;37.292;2023-03-25T05:22:46;5.32;;;2.95;;
71800;SDS011;59647;55.838;37.292;2023-03-25T05:25:12;6.65;;;3.28;;
71800;SDS011;59647;55.838;37.292;2023-03-25T05:27:38;5.85;;;3.67;;
71800;SDS011;59647;55.838;37.292;2023-03-25T05:30:05;9.25;;;4.10;;
71800;SDS011;59647;55.838;37.292;2023-03-25T05:32:31;6.53;;;4.32;;
71800;SDS011;59647;55.838;37.292;2023-03-25T05:35:00;6.65;;;4.22;;
71800;SDS011;59647;55.838;37.292;2023-03-25T05:37:28;5.03;;;3.25;;
71800;SDS011;59647;55.838;37.292;2023-03-25T05:39:55;4.78;;;2.70;;
71800;SDS011;59647;55.838;37.292;2023-03-25T05:42:20;10.13;;;3.78;;
71800;SDS011;59647;55.838;37.292;2023-03-25T05:44:50;4.70;;;3.13;;
71800;SDS011;59647;55.838;37.292;2023-03-25T05:47:20;8.27;;;3.70;;
71800;SDS011;59647;55.838;37.292;2023-03-25T05:49:48;5.07;;;2.97;;
71800;SDS011;59647;55.838;37.292;2023-03-25T05:52:15;10.20;;;4.18;;
71800;SDS011;59647;55.838;37.292;2023-03-25T05:54:45;6.15;;;3.65;;
71800;SDS011;59647;55.838;37.292;2023-03-25T05:57:14;5.95;;;3.17;;
71800;SDS011;59647;55.838;37.292;2023-03-25T05:59:40;6.57;;;3.30;;
71800;SDS011;59647;55.838;37.292;2023-03-25T06:02:07;6.25;;;4.07;;
71800;SDS011;59647;55.838;37.292;2023-03-25T06:04:37;9.20;;;4.15;;
71800;SDS011;59647;55.838;37.292;2023-03-25T06:07:14;6.90;;;3.20;;
71800;SDS011;59647;55.838;37.292;2023-03-25T06:09:53;8.63;;;4.55;;
71800;SDS011;59647;55.838;37.292;2023-03-25T06:12:20;7.35;;;3.22;;
71800;SDS011;59647;55.838;37.292;2023-03-25T06:14:47;6.97;;;3.70;;
71800;SDS011;59647;55.838;37.292;2023-03-25T06:17:18;8.27;;;3.30;;
71800;SDS011;59647;55.838;37.292;2023-03-25T06:19:47;6.90;;;3.53;;
71800;SDS011;59647;55.838;37.292;2023-03-25T06:22:14;6.30;;;3.13;;
71800;SDS011;59647;55.838;37.292;2023-03-25T06:24:40;6.38;;;3.58;;
71800;SDS011;59647;55.838;37.292;2023-03-25T06:27:09;7.82;;;4.10;;
71800;SDS011;59647;55.838;37.292;2023-03-25T06:29:37;9.65;;;3.97;;
71800;SDS011;59647;55.838;37.292;2023-03-25T06:32:06;11.75;;;4.05;;
71800;SDS011;59647;55.838;37.292;2023-03-25T06:34:32;14.05;;;5.22;;
71800;SDS011;59647;55.838;37.292;2023-03-25T06:36:59;11.25;;;4.50;;
71800;SDS011;59647;55.838;37.292;2023-03-25T06:39:25;8.18;;;4.28;;
71800;SDS011;59647;55.838;37.292;2023-03-25T06:42:01;7.85;;;4.15;;
71800;SDS011;59647;55.838;37.292;2023-03-25T06:44:39;8.85;;;4.00;;
71800;SDS011;59647;55.838;37.292;2023-03-25T06:47:35;11.05;;;4.30;;
71800;SDS011;59647;55.838;37.292;2023-03-25T06:50:01;9.30;;;4.05;;
71800;SDS011;59647;55.838;37.292;2023-03-25T06:52:28;6.82;;;3.85;;
71800;SDS011;59647;55.838;37.292;2023-03-25T06:54:53;10.65;;;6.03;;
71800;SDS011;59647;55.838;37.292;2023-03-25T06:57:19;15.57;;;7.18;;
71800;SDS011;59647;55.838;37.292;2023-03-25T06:59:45;10.23;;;5.30;;
71800;SDS011;59647;55.838;37.292;2023-03-25T07:02:12;8.85;;;4.32;;
71800;SDS011;59647;55.838;37.292;2023-03-25T07:04:39;10.75;;;4.65;;
71800;SDS011;59647;55.838;37.292;2023-03-25T07:07:06;8.48;;;4.57;;
71800;SDS011;59647;55.838;37.292;2023-03-25T07:09:33;9.65;;;4.32;;
71800;SDS011;59647;55.838;37.292;2023-03-25T07:11:59;10.43;;;4.68;;
71800;SDS011;59647;55.838;37.292;2023-03-25T07:14:25;10.90;;;4.95;;
71800;SDS011;59647;55.838;37.292;2023-03-25T07:16:51;7.18;;;4.57;;
71800;SDS011;59647;55.838;37.292;2023-03-25T07:19:16;7.88;;;4.80;;
71800;SDS011;59647;55.838;37.292;2023-03-25T07:21:42;9.98;;;4.93;;
71800;SDS011;59647;55.838;37.292;2023-03-25T07:24:27;15.27;;;6.10;;
71800;SDS011;59647;55.838;37.292;2023-03-25T07:29:38;8.43;;;4.68;;
71800;SDS011;59647;55.838;37.292;2023-03-25T07:32:22;15.25;;;4.97;;
71800;SDS011;59647;55.838;37.292;2023-03-25T07:34:48;10.77;;;5.53;;
71800;SDS011;59647;55.838;37.292;2023-03-25T07:37:14;10.48;;;5.63;;
71800;SDS011;59647;55.838;37.292;2023-03-25T07:39:40;10.90;;;5.45;;
71800;SDS011;59647;55.838;37.292;2023-03-25T07:42:06;10.90;;;6.07;;
71800;SDS011;59647;55.838;37.292;2023-03-25T07:44:59;9.45;;;5.20;;
71800;SDS011;59647;55.838;37.292;2023-03-25T07:47:28;9.48;;;5.68;;
71800;SDS011;59647;55.838;37.292;2023-03-25T07:50:12;10.70;;;5.97;;
71800;SDS011;59647;55.838;37.292;2023-03-25T07:52:38;13.55;;;6.15;;
71800;SDS011;59647;55.838;37.292;2023-03-25T07:55:22;9.13;;;5.80;;
71800;SDS011;59647;55.838;37.292;2023-03-25T07:57:48;15.15;;;7.20;;
71800;SDS011;59647;55.838;37.292;2023-03-25T08:00:14;14.48;;;6.43;;
71800;SDS011;59647;55.838;37.292;2023-03-25T08:02:40;13.80;;;6.65;;
71800;SDS011;59647;55.838;37.292;2023-03-25T08:05:06;13.52;;;7.57;;
71800;SDS011;59647;55.838;37.292;2023-03-25T08:07:32;17.77;;;7.07;;
71800;SDS011;59647;55.838;37.292;2023-03-25T08:09:58;17.15;;;7.47;;
71800;SDS011;59647;55.838;37.292;2023-03-25T08:12:24;13.30;;;7.22;;
71800;SDS011;59647;55.838;37.292;2023-03-25T08:14:50;15.82;;;8.18;;
71800;SDS011;59647;55.838;37.292;2023-03-25T08:17:16;15.10;;;7.53;;
71800;SDS011;59647;55.838;37.292;2023-03-25T08:22:29;12.27;;;6.32;;
71800;SDS011;59647;55.838;37.292;2023-03-25T08:25:13;13.75;;;7.82;;
71800;SDS011;59647;55.838;37.292;2023-03-25T08:27:58;11.90;;;7.03;;
71800;SDS011;59647;55.838;37.292;2023-03-25T08:30:24;16.20;;;7.80;;
71800;SDS011;59647;55.838;37.292;2023-03-25T08:32:49;13.93;;;7.20;;
71800;SDS011;59647;55.838;37.292;2023-03-25T08:35:19;11.60;;;6.43;;
71800;SDS011;59647;55.838;37.292;2023-03-25T08:37:47;14.07;;;6.40;;
71800;SDS011;59647;55.838;37.292;2023-03-25T08:40:13;13.43;;;7.15;;
71800;SDS011;59647;55.838;37.292;2023-03-25T08:42:41;11.30;;;6.47;;
71800;SDS011;59647;55.838;37.292;2023-03-25T08:45:07;13.23;;;7.32;;
71800;SDS011;59647;55.838;37.292;2023-03-25T08:47:34;9.93;;;6.00;;
71800;SDS011;59647;55.838;37.292;2023-03-25T08:50:00;15.80;;;7.07;;
71800;SDS011;59647;55.838;37.292;2023-03-25T08:52:26;12.35;;;6.45;;
71800;SDS011;59647;55.838;37.292;2023-03-25T08:55:11;11.23;;;6.13;;
71800;SDS011;59647;55.838;37.292;2023-03-25T08:57:40;12.60;;;6.72;;
71800;SDS011;59647;55.838;37.292;2023-03-25T09:00:07;15.02;;;7.53;;
71800;SDS011;59647;55.838;37.292;2023-03-25T09:02:41;14.23;;;8.45;;
71800;SDS011;59647;55.838;37.292;2023-03-25T09:05:08;14.45;;;7.55;;
71800;SDS011;59647;55.838;37.292;2023-03-25T09:07:35;16.05;;;7.57;;
71800;SDS011;59647;55.838;37.292;2023-03-25T09:10:02;14.15;;;7.25;;
71800;SDS011;59647;55.838;37.292;2023-03-25T09:12:29;11.18;;;6.63;;
71800;SDS011;59647;55.838;37.292;2023-03-25T09:14:55;10.93;;;6.93;;
71800;SDS011;59647;55.838;37.292;2023-03-25T09:17:21;14.13;;;7.13;;
71800;SDS011;59647;55.838;37.292;2023-03-25T09:19:46;10.70;;;6.95;;
71800;SDS011;59647;55.838;37.292;2023-03-25T09:22:12;11.13;;;6.93;;
71800;SDS011;59647;55.838;37.292;2023-03-25T09:24:57;15.05;;;6.93;;
71800;SDS011;59647;55.838;37.292;2023-03-25T09:27:23;14.68;;;8.07;;
71800;SDS011;59647;55.838;37.292;2023-03-25T09:29:49;11.85;;;7.35;;
71800;SDS011;59647;55.838;37.292;2023-03-25T09:32:28;12.48;;;7.65;;
71800;SDS011;59647;55.838;37.292;2023-03-25T09:34:54;10.95;;;7.60;;
71800;SDS011;59647;55.838;37.292;2023-03-25T09:37:21;17.23;;;7.72;;
71800;SDS011;59647;55.838;37.292;2023-03-25T09:39:47;12.38;;;8.68;;
71800;SDS011;59647;55.838;37.292;2023-03-25T09:47:31;10.25;;;6.80;;
71800;SDS011;59647;55.838;37.292;2023-03-25T09:50:18;11.88;;;6.78;;
71800;SDS011;59647;55.838;37.292;2023-03-25T09:55:37;15.18;;;7.07;;
71800;SDS011;59647;55.838;37.292;2023-03-25T10:01:49;13.63;;;8.15;;
71800;SDS011;59647;55.838;37.292;2023-03-25T10:07:33;11.48;;;6.53;;
71800;SDS011;59647;55.838;37.292;2023-03-25T10:16:25;13.95;;;8.05;;
71800;SDS011;59647;55.838;37.292;2023-03-25T10:21:59;11.65;;;6.97;;
71800;SDS011;59647;55.838;37.292;2023-03-25T10:25:17;13.00;;;7.68;;
71800;SDS011;59647;55.838;37.292;2023-03-25T10:31:12;14.15;;;7.90;;
71800;SDS011;59647;55.838;37.292;2023-03-25T10:34:04;11.90;;;7.47;;
71800;SDS011;59647;55.838;37.292;2023-03-25T10:36:32;13.95;;;7.95;;
71800;SDS011;59647;55.838;37.292;2023-03-25T10:39:04;15.65;;;7.38;;
71800;SDS011;59647;55.838;37.292;2023-03-25T10:41:39;14.27;;;7.18;;
71800;SDS011;59647;55.838;37.292;2023-03-25T10:44:08;15.50;;;7.90;;
71800;SDS011;59647;55.838;37.292;2023-03-25T10:54:55;14.57;;;7.65;;
71800;SDS011;59647;55.838;37.292;2023-03-25T11:02:44;12.40;;;6.80;;
71800;SDS011;59647;55.838;37.292;2023-03-25T11:05:15;15.68;;;7.53;;
71800;SDS011;59647;55.838;37.292;2023-03-25T11:07:54;14.10;;;8.63;;
71800;SDS011;59647;55.838;37.292;2023-03-25T11:10:27;12.20;;;7.00;;
71800;SDS011;59647;55.838;37.292;2023-03-25T11:12:56;12.48;;;7.28;;
71800;SDS011;59647;55.838;37.292;2023-03-25T11:21:06;13.57;;;7.90;;
71800;SDS011;59647;55.838;37.292;2023-03-25T11:23:56;16.20;;;8.57;;
71800;SDS011;59647;55.838;37.292;2023-03-25T11:26:28;16.63;;;7.85;;
71800;SDS011;59647;55.838;37.292;2023-03-25T11:29:04;12.55;;;6.85;;
71800;SDS011;59647;55.838;37.292;2023-03-25T11:32:34;14.50;;;8.30;;
71800;SDS011;59647;55.838;37.292;2023-03-25T11:34:41;14.98;;;7.68;;
71800;SDS011;59647;55.838;37.292;2023-03-25T11:37:19;15.98;;;8.20;;
71800;SDS011;59647;55.838;37.292;2023-03-25T11:39:49;18.65;;;10.30;;
71800;SDS011;59647;55.838;37.292;2023-03-25T11:45:00;15.98;;;9.35;;
71800;SDS011;59647;55.838;37.292;2023-03-25T11:47:33;15.43;;;8.98;;
71800;SDS011;59647;55.838;37.292;2023-03-25T11:50:02;20.33;;;9.20;;
71800;SDS011;59647;55.838;37.292;2023-03-25T11:52:48;14.95;;;9.27;;
71800;SDS011;59647;55.838;37.292;2023-03-25T11:57:45;16.75;;;8.65;;
71800;SDS011;59647;55.838;37.292;2023-03-25T12:05:39;18.50;;;9.25;;
71800;SDS011;59647;55.838;37.292;2023-03-25T12:08:13;17.35;;;8.68;;
71800;SDS011;59647;55.838;37.292;2023-03-25T12:43:51;17.13;;;9.35;;
71800;SDS011;59647;55.838;37.292;2023-03-25T13:07:33;35.00;;;19.13;;
71800;SDS011;59647;55.838;37.292;2023-03-25T13:12:41;25.73;;;14.77;;
71800;SDS011;59647;55.838;37.292;2023-03-25T13:15:16;14.00;;;8.57;;
71800;SDS011;59647;55.838;37.292;2023-03-25T13:20:35;13.40;;;7.88;;
71800;SDS011;59647;55.838;37.292;2023-03-25T13:23:06;18.75;;;9.20;;
71800;SDS011;59647;55.838;37.292;2023-03-25T13:25:59;11.75;;;7.13;;
71800;SDS011;59647;55.838;37.292;2023-03-25T13:28:38;16.08;;;9.10;;
71800;SDS011;59647;55.838;37.292;2023-03-25T13:31:33;21.17;;;11.77;;
71800;SDS011;59647;55.838;37.292;2023-03-25T13:43:24;17.48;;;11.70;;
71800;SDS011;59647;55.838;37.292;2023-03-25T13:45:24;17.13;;;10.15;;
71800;SDS011;59647;55.838;37.292;2023-03-25T13:50:43;17.92;;;11.68;;
71800;SDS011;59647;55.838;37.292;2023-03-25T14:00:17;89.43;;;48.28;;
71800;SDS011;59647;55.838;37.292;2023-03-25T14:08:16;40.40;;;23.40;;
71800;SDS011;59647;55.838;37.292;2023-03-25T14:13:31;17.48;;;9.77;;
71800;SDS011;59647;55.838;37.292;2023-03-25T14:16:06;19.48;;;8.60;;
71800;SDS011;59647;55.838;37.292;2023-03-25T14:19:11;17.63;;;9.60;;
71800;SDS011;59647;55.838;37.292;2023-03-25T14:21:41;29.33;;;14.10;;
71800;SDS011;59647;55.838;37.292;2023-03-25T14:24:26;18.00;;;11.45;;
71800;SDS011;59647;55.838;37.292;2023-03-25T14:27:29;14.40;;;8.43;;
71800;SDS011;59647;55.838;37.292;2023-03-25T14:32:33;18.38;;;10.32;;
71800;SDS011;59647;55.838;37.292;2023-03-25T14:43:25;16.40;;;7.38;;
71800;SDS011;59647;55.838;37.292;2023-03-25T14:54:27;15.10;;;8.02;;
71800;SDS011;59647;55.838;37.292;2023-03-25T14:57:05;21.95;;;12.18;;
71800;SDS011;59647;55.838;37.292;2023-03-25T14:59:54;19.33;;;10.35;;
71800;SDS011;59647;55.838;37.292;2023-03-25T15:02:37;22.95;;;14.88;;
71800;SDS011;59647;55.838;37.292;2023-03-25T15:05:14;22.98;;;13.07;;
71800;SDS011;59647;55.838;37.292;2023-03-25T15:07:52;20.65;;;10.50;;
71800;SDS011;59647;55.838;37.292;2023-03-25T15:11:25;18.77;;;10.48;;
71800;SDS011;59647;55.838;37.292;2023-03-25T15:13:39;18.30;;;9.35;;
71800;SDS011;59647;55.838;37.292;2023-03-25T15:16:18;18.48;;;10.18;;
71800;SDS011;59647;55.838;37.292;2023-03-25T15:19:21;26.15;;;12.80;;
71800;SDS011;59647;55.838;37.292;2023-03-25T15:24:41;20.80;;;12.45;;
71800;SDS011;59647;55.838;37.292;2023-03-25T15:27:21;15.88;;;9.35;;
71800;SDS011;59647;55.838;37.292;2023-03-25T15:30:32;18.55;;;9.50;;
71800;SDS011;59647;55.838;37.292;2023-03-25T15:42:36;23.67;;;12.75;;
71800;SDS011;59647;55.838;37.292;2023-03-25T15:45:59;37.38;;;18.25;;
71800;SDS011;59647;55.838;37.292;2023-03-25T15:51:13;31.52;;;14.32;;
71800;SDS011;59647;55.838;37.292;2023-03-25T15:59:44;26.17;;;14.25;;
71800;SDS011;59647;55.838;37.292;2023-03-25T16:02:50;43.65;;;20.83;;
71800;SDS011;59647;55.838;37.292;2023-03-25T16:05:28;106.75;;;47.03;;
71800;SDS011;59647;55.838;37.292;2023-03-25T16:07:56;70.47;;;29.73;;
71800;SDS011;59647;55.838;37.292;2023-03-25T16:10:27;43.83;;;25.08;;
71800;SDS011;59647;55.838;37.292;2023-03-25T16:12:56;29.35;;;16.58;;
71800;SDS011;59647;55.838;37.292;2023-03-25T16:15:27;19.42;;;9.55;;
71800;SDS011;59647;55.838;37.292;2023-03-25T16:18:14;18.90;;;11.80;;
71800;SDS011;59647;55.838;37.292;2023-03-25T16:20:41;21.63;;;12.00;;
71800;SDS011;59647;55.838;37.292;2023-03-25T16:23:12;18.58;;;10.60;;
71800;SDS011;59647;55.838;37.292;2023-03-25T16:25:42;14.88;;;9.10;;
71800;SDS011;59647;55.838;37.292;2023-03-25T16:31:13;12.60;;;7.85;;
71800;SDS011;59647;55.838;37.292;2023-03-25T16:33:59;15.65;;;8.90;;
71800;SDS011;59647;55.838;37.292;2023-03-25T16:36:25;14.18;;;7.65;;
71800;SDS011;59647;55.838;37.292;2023-03-25T16:38:53;13.55;;;7.38;;
71800;SDS011;59647;55.838;37.292;2023-03-25T16:41:20;16.05;;;7.88;;
71800;SDS011;59647;55.838;37.292;2023-03-25T16:43:46;14.80;;;7.45;;
71800;SDS011;59647;55.838;37.292;2023-03-25T16:51:52;14.45;;;8.82;;
71800;SDS011;59647;55.838;37.292;2023-03-25T16:54:22;14.00;;;8.13;;
71800;SDS011;59647;55.838;37.292;2023-03-25T16:56:55;11.88;;;7.32;;
71800;SDS011;59647;55.838;37.292;2023-03-25T17:00:02;15.00;;;8.68;;
71800;SDS011;59647;55.838;37.292;2023-03-25T17:02:41;18.65;;;8.75;;
71800;SDS011;59647;55.838;37.292;2023-03-25T17:05:19;17.20;;;9.45;;
71800;SDS011;59647;55.838;37.292;2023-03-25T17:07:47;13.65;;;8.48;;
71800;SDS011;59647;55.838;37.292;2023-03-25T17:10:23;14.30;;;8.35;;
71800;SDS011;59647;55.838;37.292;2023-03-25T17:15:22;11.95;;;7.13;;
71800;SDS011;59647;55.838;37.292;2023-03-25T17:17:51;12.25;;;7.90;;
71800;SDS011;59647;55.838;37.292;2023-03-25T17:23:18;15.57;;;8.88;;
71800;SDS011;59647;55.838;37.292;2023-03-25T17:26:11;14.57;;;8.30;;
71800;SDS011;59647;55.838;37.292;2023-03-25T17:31:41;13.02;;;7.65;;
71800;SDS011;59647;55.838;37.292;2023-03-25T17:34:10;15.55;;;8.77;;
71800;SDS011;59647;55.838;37.292;2023-03-25T17:36:44;15.63;;;9.02;;
71800;SDS011;59647;55.838;37.292;2023-03-25T17:39:18;14.68;;;8.70;;
71800;SDS011;59647;55.838;37.292;2023-03-25T17:41:46;13.80;;;7.97;;
71800;SDS011;59647;55.838;37.292;2023-03-25T17:44:23;15.93;;;9.27;;
71800;SDS011;59647;55.838;37.292;2023-03-25T17:49:54;14.07;;;8.77;;
71800;SDS011;59647;55.838;37.292;2023-03-25T17:52:39;13.48;;;8.88;;
71800;SDS011;59647;55.838;37.292;2023-03-25T17:55:05;15.55;;;8.80;;
71800;SDS011;59647;55.838;37.292;2023-03-25T17:57:50;14.20;;;9.07;;
71800;SDS011;59647;55.838;37.292;2023-03-25T18:00:34;17.30;;;9.10;;
71800;SDS011;59647;55.838;37.292;2023-03-25T18:03:09;13.57;;;8.13;;
71800;SDS011;59647;55.838;37.292;2023-03-25T18:05:36;15.13;;;8.65;;
71800;SDS011;59647;55.838;37.292;2023-03-25T18:08:02;14.57;;;8.63;;
71800;SDS011;59647;55.838;37.292;2023-03-25T18:10:28;15.40;;;8.27;;
71800;SDS011;59647;55.838;37.292;2023-03-25T18:12:56;13.55;;;7.88;;
71800;SDS011;59647;55.838;37.292;2023-03-25T18:15:21;13.73;;;7.82;;
71800;SDS011;59647;55.838;37.292;2023-03-25T18:17:47;15.30;;;9.00;;
71800;SDS011;59647;55.838;37.292;2023-03-25T18:23:00;14.50;;;9.27;;
71800;SDS011;59647;55.838;37.292;2023-03-25T18:25:26;16.15;;;9.05;;
71800;SDS011;59647;55.838;37.292;2023-03-25T18:28:10;15.82;;;8.93;;
71800;SDS011;59647;55.838;37.292;2023-03-25T18:30:57;13.48;;;8.43;;
71800;SDS011;59647;55.838;37.292;2023-03-25T18:33:25;14.65;;;8.82;;
71800;SDS011;59647;55.838;37.292;2023-03-25T18:35:53;14.60;;;9.52;;
71800;SDS011;59647;55.838;37.292;2023-03-25T18:38:22;17.98;;;10.50;;
71800;SDS011;59647;55.838;37.292;2023-03-25T18:40:49;18.92;;;11.20;;
71800;SDS011;59647;55.838;37.292;2023-03-25T18:43:16;15.02;;;9.93;;
71800;SDS011;59647;55.838;37.292;2023-03-25T18:45:43;15.95;;;10.45;;
71800;SDS011;59647;55.838;37.292;2023-03-25T18:48:10;16.15;;;10.05;;
71800;SDS011;59647;55.838;37.292;2023-03-25T18:50:44;19.23;;;10.68;;
71800;SDS011;59647;55.838;37.292;2023-03-25T18:53:37;13.90;;;9.32;;
71800;SDS011;59647;55.838;37.292;2023-03-25T18:56:04;16.05;;;10.20;;
71800;SDS011;59647;55.838;37.292;2023-03-25T18:58:50;22.50;;;11.95;;
71800;SDS011;59647;55.838;37.292;2023-03-25T19:01:35;18.15;;;11.38;;
71800;SDS011;59647;55.838;37.292;2023-03-25T19:04:01;16.98;;;10.73;;
71800;SDS011;59647;55.838;37.292;2023-03-25T19:06:27;18.15;;;10.40;;